Latest Coastal Weather Observations for Port Fairy

IDV60701

Issued at 7:35 am EST Wednesday 3 September 2014 (issued every 10 minutes, with the page automatically refreshed every 10 minutes)

About coastal observations | Map of coastal stations | Coastal observations for VIC | Marine services | Other Formats
Station Details ID: 090175 Name: PORT FAIRY AWS Lat: -38.39 Lon: 142.23 Height: 10.0 m
Data from the previous 72 hours. | See also: Recent months at Port Fairy
Date/Time
EST
Temp

°C
Wind Pressure Rain
since 9am
mm
Weather Cloud Vis
km
Sea
Height
m
Swell
Dir
 
Speed
knots
Gust
knots
hPa Trend Height
m
Period
s
Dir
03/07:30am 10.8 S 5 7 1024.4 - 1.2 - - - - - - -
03/07:00am 10.3 S 4 7 1024.3 - 1.2 - - - - - - -
03/06:30am 10.0 SSE 6 7 1024.1 - 1.2 - - - - - - -
03/06:00am 10.3 S 7 9 1023.9 - 1.2 - - - - - - -
03/05:30am 10.5 SSE 8 10 1023.9 - 1.2 - - - - - - -
03/05:00am 10.7 S 6 9 1023.7 - 1.2 - - - - - - -
03/04:30am 10.6 S 7 11 1023.8 - 1.2 - - - - - - -
03/04:00am 10.7 SSW 11 15 1024.0 - 1.2 - - - - - - -
03/03:30am 11.1 S 8 11 1024.1 - 1.2 - - - - - - -
03/03:00am 10.8 S 8 13 1024.2 - 1.2 - - - - - - -
03/02:30am 11.1 S 8 12 1024.5 - 1.2 - - - - - - -
03/02:00am 11.1 SSW 10 14 1024.9 - 1.2 - - - - - - -
03/01:30am 10.9 SSW 7 12 1025.1 - 1.2 - - - - - - -
03/01:00am 10.7 SSE 11 15 1025.1 - 1.2 - - - - - - -
03/12:30am 10.7 S 10 15 1025.1 - 1.2 - - - - - - -
03/12:00am 10.6 S 10 14 1025.2 - 1.2 - - - - - - -
 
Date/Time
EST
Temp

°C
Wind Pressure Rain
since 9am
mm
Weather Cloud Vis
km
Sea
Height
m
Swell
Dir
 
Speed
knots
Gust
knots
hPa Trend Height
m
Period
s
Dir
02/11:30pm 10.7 S 13 18 1025.2 - 1.2 - - - - - - -
02/11:00pm 10.8 S 12 16 1025.2 - 1.2 - - - - - - -
02/10:30pm 11.0 S 12 17 1025.2 - 1.2 - - - - - - -
02/10:00pm 11.1 S 10 15 1025.2 - 1.2 - - - - - - -
02/09:30pm 10.9 S 7 10 1025.1 - 1.2 - - - - - - -
02/09:00pm 10.7 S 9 13 1025.1 - 1.2 - - - - - - -
02/08:30pm 10.6 S 10 15 1025.0 - 1.2 - - - - - - -
02/08:00pm 10.5 S 11 14 1024.9 - 1.2 - - - - - - -
02/07:30pm 10.2 S 15 21 1024.7 - 1.2 - - - - - - -
02/07:00pm 10.5 S 10 14 1024.5 - 1.2 - - - - - - -
02/06:30pm 10.4 S 12 18 1024.3 - 1.2 - - - - - - -
02/06:00pm 10.1 SSW 5 10 1023.9 - 1.2 Recent precip. - - - - - -
02/05:30pm 10.9 S 10 14 1023.6 - 0.8 - - - - - - -
02/05:00pm 10.8 S 13 17 1023.4 - 0.8 - - - - - - -
02/04:30pm 10.5 SSW 8 15 1023.2 - 0.8 - - - - - - -
02/04:00pm 12.2 S 9 15 1022.7 - 0.0 - - - - - - -
02/03:30pm 12.5 S 9 14 1022.7 - 0.0 - - - - - - -
02/03:00pm 13.1 SSW 11 15 1022.6 - 0.0 - - - - - - -
02/02:30pm 13.1 SSW 10 15 1022.5 - 0.0 - - - - - - -
02/02:00pm 13.1 S 11 15 1022.3 - 0.0 - - - - - - -
02/01:30pm 13.7 SSW 10 15 1022.4 - 0.0 - - - - - - -
02/01:00pm 13.5 S 13 16 1022.4 - 0.0 - - - - - - -
02/12:30pm 13.0 S 12 16 1022.5 - 0.0 - - - - - - -
02/12:00pm 13.3 S 13 18 1022.5 - 0.0 - - - - - - -
02/11:30am 13.2 S 13 18 1022.5 - 0.0 - - - - - - -
02/11:00am 12.9 S 14 18 1022.4 - 0.0 - - - - - - -
02/10:30am 12.8 S 12 17 1022.3 - 0.0 - - - - - - -
02/10:00am 12.7 S 13 20 1022.2 - 0.0 - - - - - - -
02/09:30am 12.6 S 13 20 1021.8 - 0.0 - - - - - - -
02/09:00am 12.3 S 15 20 1021.4 - 1.4 - - - - - - -
02/08:30am 12.0 SSW 15 21 1021.0 - 1.4 - - - - - - -
02/08:00am 11.4 SSW 14 21 1020.5 - 1.4 - - - - - - -
02/07:30am 11.6 SSW 14 19 1020.1 - 1.4 - - - - - - -
02/07:00am 11.5 S 14 19 1019.6 - 1.4 - - - - - - -
02/06:30am 11.5 S 13 18 1019.0 - 1.4 - - - - - - -
02/06:00am 11.4 S 13 18 1018.5 - 1.4 - - - - - - -
02/05:30am 11.2 S 13 18 1018.1 - 1.4 - - - - - - -
02/05:00am 11.3 S 12 18 1017.6 - 1.4 - - - - - - -
02/04:30am 11.3 S 15 20 1017.3 - 1.4 - - - - - - -
02/04:00am 11.3 S 13 19 1016.9 - 1.4 - - - - - - -
02/03:30am 11.4 S 14 22 1016.7 - 1.4 - - - - - - -
02/03:00am 11.5 S 15 21 1016.3 - 1.4 - - - - - - -
02/02:30am 11.4 S 14 21 1016.0 - 1.4 - - - - - - -
02/02:00am 10.8 SSE 13 16 1015.8 - 1.4 - - - - - - -
02/01:30am 10.7 S 14 20 1015.7 - 1.4 - - - - - - -
02/01:00am 10.0 SSW 11 19 1015.4 - 1.2 - - - - - - -
02/12:30am 11.2 S 11 17 1015.0 - 0.8 - - - - - - -
02/12:00am 11.8 SSW 8 16 1014.8 - 0.4 - - - - - - -
 
Date/Time
EST
Temp

°C
Wind Pressure Rain
since 9am
mm
Weather Cloud Vis
km
Sea
Height
m
Swell
Dir
 
Speed
knots
Gust
knots
hPa Trend Height
m
Period
s
Dir
01/11:30pm 11.6 SW 9 12 1014.6 - 0.4 - - - - - - -
01/11:00pm 11.4 SW 13 17 1014.5 - 0.4 - - - - - - -
01/10:30pm 11.3 SW 16 20 1014.3 - 0.4 - - - - - - -
01/10:00pm 11.3 SW 13 19 1014.1 - 0.4 - - - - - - -
01/09:30pm 11.4 SSW 14 19 1013.7 - 0.2 - - - - - - -
01/09:00pm 11.5 SW 11 14 1013.4 - 0.2 - - - - - - -
01/08:30pm 11.5 SSW 14 18 1013.1 - 0.2 - - - - - - -
01/08:00pm 11.5 SW 13 19 1012.9 - 0.2 - - - - - - -
01/07:30pm 11.7 SW 11 15 1012.5 - 0.2 - - - - - - -
01/07:00pm 11.7 WSW 12 16 1012.1 - 0.2 - - - - - - -
01/06:30pm 11.9 WSW 12 15 1011.8 - 0.2 - - - - - - -
01/06:00pm 11.8 WSW 13 16 1011.4 - 0.2 - - - - - - -
01/05:30pm 12.5 SW 13 17 1010.9 - 0.2 - - - - - - -
01/05:00pm 12.2 SW 12 17 1010.6 - 0.2 - - - - - - -
01/04:30pm 13.2 SW 14 18 1010.3 - 0.0 - - - - - - -
01/04:00pm 12.8 SW 11 18 1010.0 - 0.0 - - - - - - -
01/03:30pm 13.2 SW 10 14 1009.8 - 0.0 - - - - - - -
01/03:00pm 13.4 SW 12 15 1009.5 - 0.0 - - - - - - -
01/02:30pm 13.5 SW 11 14 1009.3 - 0.0 - - - - - - -
01/02:00pm 13.4 SW 10 13 1009.4 - 0.0 - - - - - - -
01/01:30pm 13.3 WSW 9 11 1009.4 - 0.0 - - - - - - -
01/01:00pm 13.4 SW 9 11 1009.6 - 0.0 - - - - - - -
01/12:30pm 14.4 SW 10 14 1009.5 - 0.0 - - - - - - -
01/12:00pm 13.7 SW 10 14 1009.6 - 0.0 - - - - - - -
01/11:30am 13.4 SW 10 13 1009.7 - 0.0 - - - - - - -
01/11:00am 13.0 SW 14 18 1009.7 - 0.0 - - - - - - -
01/10:30am 12.2 SSW 8 13 1009.3 - 0.0 - - - - - - -
01/10:00am 12.0 SSW 9 16 1009.1 - 0.0 - - - - - - -
01/09:30am 12.4 WSW 9 12 1009.2 - 0.0 - - - - - - -
01/09:00am 12.1 WSW 11 15 1008.9 - 5.4 - - - - - - -
01/08:30am 11.9 WSW 13 16 1008.4 - 5.4 - - - - - - -
01/08:00am 11.6 WSW 13 17 1008.1 - 5.4 - - - - - - -
01/07:30am 11.0 W 8 11 1008.1 - 4.8 - - - - - - -
01/07:00am 11.0 NW 6 10 1007.7 - 3.8 - - - - - - -
01/06:30am 10.9 NNW 7 11 1007.4 - 2.8 - - - - - - -
01/06:00am 10.9 NNW 6 8 1007.2 - 2.8 Recent precip. - - - - - -
01/05:30am 11.1 NNW 6 9 1006.8 - 2.8 - - - - - - -
01/05:00am 11.2 WNW 5 9 1006.8 - 2.6 - - - - - - -
01/04:30am 11.2 WNW 12 21 1006.9 - 2.2 - - - - - - -
01/04:00am 11.6 NW 7 11 1006.9 - 1.6 - - - - - - -
01/03:30am 11.5 NNW 7 11 1007.0 - 1.2 - - - - - - -
01/03:00am 11.7 NNW 8 12 1007.2 - 0.8 Recent precip. - - - - - -
01/02:30am 11.8 NNW 5 8 1007.2 - 0.6 - - - - - - -
01/02:00am 11.7 NNW 3 5 1006.9 - 0.6 - - - - - - -
01/01:30am 12.0 WNW 6 8 1007.5 - 0.6 - - - - - - -
01/01:00am 13.5 N 4 6 1007.0 - 0.0 - - - - - - -
01/12:30am 13.9 NNE 5 9 1007.0 - 0.0 - - - - - - -
01/12:00am 13.3 N 4 5 1007.3 - 0.0 - - - - - - -
 
Date/Time
EST
Temp

°C
Wind Pressure Rain
since 9am
mm
Weather Cloud Vis
km
Sea
Height
m
Swell
Dir
 
Speed
knots
Gust
knots
hPa Trend Height
m
Period
s
Dir
31/11:30pm 13.4 NNE 4 6 1007.2 - 0.0 - - - - - - -
31/11:00pm 13.4 N 4 5 1007.9 - 0.0 - - - - - - -
31/10:30pm 13.7 N 3 4 1008.3 - 0.0 - - - - - - -
31/10:00pm 14.0 WNW 3 5 1008.6 - 0.0 - - - - - - -
31/09:30pm 14.3 WSW 5 7 1009.1 - 0.0 - - - - - - -
31/09:00pm 14.7 W 6 9 1009.5 - 0.0 - - - - - - -
31/08:30pm 16.0 NNW 6 9 1008.8 - 0.0 - - - - - - -
31/08:00pm 16.2 N 6 9 1009.1 - 0.0 - - - - - - -
31/07:30pm 16.4 N 5 7 1009.1 - 0.0 - - - - - - -
31/07:00pm 16.9 N 5 8 1008.8 - 0.0 - - - - - - -
31/06:30pm 16.9 NNE 5 7 1008.9 - 0.0 - - - - - - -
31/06:00pm 17.5 N 5 8 1009.4 - 0.0 - - - - - - -
31/05:30pm 17.8 N 6 9 1009.5 - 0.0 - - - - - - -
31/05:00pm 18.2 N 8 11 1009.6 - 0.0 - - - - - - -
31/04:30pm 18.6 N 6 8 1009.7 - 0.0 - - - - - - -
31/04:00pm 19.2 N 5 8 1010.0 - 0.0 - - - - - - -
31/03:30pm 19.9 N 7 11 1010.0 - 0.0 - - - - - - -
31/03:00pm 20.6 N 10 18 1010.3 - 0.0 - - - - - - -
31/02:30pm 21.8 NNW 9 15 1010.8 - 0.0 - - - - - - -
31/02:00pm 21.2 N 10 15 1010.9 - 0.0 - - - - - - -
31/01:30pm 22.1 N 9 15 1011.5 - 0.0 - - - - - - -
31/01:00pm 20.2 N 9 14 1011.9 - 0.0 - - - - - - -
31/12:30pm 20.3 N 11 17 1012.5 - 0.0 - - - - - - -
31/12:00pm 19.8 N 12 20 1013.1 - 0.0 - - - - - - -
31/11:30am 18.5 N 12 18 1013.5 - 0.0 - - - - - - -
31/11:00am 17.8 N 11 16 1013.9 - 0.0 - - - - - - -
31/10:30am 16.2 N 10 14 1014.2 - 0.0 - - - - - - -
31/10:00am 15.8 N 11 16 1014.7 - 0.0 - - - - - - -
31/09:30am 14.6 N 8 12 1014.9 - 0.0 - - - - - - -
31/09:00am 13.9 N 11 15 1015.0 - 0.0 - - - - - - -
31/08:30am 13.2 N 11 17 1015.2 - 0.0 - - - - - - -
31/08:00am 12.7 N 10 16 1015.4 - 0.0 - - - - - - -

Other Formats:

Comma delimited format used in spreadsheet applications
http://www.bom.gov.au/fwo/IDV60701/IDV60701.94830.axf

JavaScript Object Notation format (JSON) in row-major order
http://www.bom.gov.au/fwo/IDV60701/IDV60701.94830.json